^^
Station Historical Data
Daily Summary for May 21, 2017 Units:  Both    English   Metric
« Previous Day
Next Day »
Daily Weekly Monthly Yearly Custom
  High: Low: Average:
Temperature: 72.9 °F /  22.7 °C 45.1 °F /  7.3 °C 57.8 °F /  14.3 °C
Dew Point: 39.7 °F /  4.3 °C 31.8 °F /  -0.1 °C 34.7 °F /  1.5 °C
Humidity: 70% 22% 45%
Wind Speed: 11.0mph /  17.7km/h - 1.1mph /  1.8km/h
Wind Gust: 14.0mph /  22.5km/h - -
Wind- - East
Pressure: 30.49 in /  1032.4 hPa 30.33 in /  1027 hPa -
Precipitation: 0.00 in /  0 mm    
Historical Graphs
 
 
Tabular Data for May 21, 2017
Time Temperature Dew Point Pressure Wind Wind Speed Wind Gust Humidity Rainfall Rate (Hourly) solar Conditions
00:05 49.3 °F /  9.6 °C 33.3 °F /  0.7 °C 30.45in /  1031hPa Calm   2.0mph /  3.2km/h 54% 0.00in /  0mm 0.0 W/m2
00:11 49.1 °F /  9.5 °C 33.3 °F /  0.7 °C 30.45in /  1031hPa Calm   1.0mph /  1.6km/h 54% 0.00in /  0mm 0.0 W/m2
00:17 48.9 °F /  9.4 °C 33.4 °F /  0.8 °C 30.45in /  1031hPa Calm   3.0mph /  4.8km/h 55% 0.00in /  0mm 0.0 W/m2
00:23 48.7 °F /  9.3 °C 33.3 °F /  0.7 °C 30.45in /  1031hPa Calm   2.0mph /  3.2km/h 55% 0.00in /  0mm 0.0 W/m2
00:29 48.7 °F /  9.3 °C 33.3 °F /  0.7 °C 30.44in /  1030.7hPa Calm   3.0mph /  4.8km/h 55% 0.00in /  0mm 0.0 W/m2
00:35 48.7 °F /  9.3 °C 33.3 °F /  0.7 °C 30.45in /  1031hPa ENE 2.0mph /  3.2km/h 5.0mph /  8km/h 55% 0.00in /  0mm 0.0 W/m2
00:41 48.7 °F /  9.3 °C 33.3 °F /  0.7 °C 30.45in /  1031hPa ESE 4.0mph /  6.4km/h 4.0mph /  6.4km/h 55% 0.00in /  0mm 0.0 W/m2
00:48 48.7 °F /  9.3 °C 33.3 °F /  0.7 °C 30.45in /  1031hPa Calm   3.0mph /  4.8km/h 55% 0.00in /  0mm 0.0 W/m2
00:54 48.7 °F /  9.3 °C 33.3 °F /  0.7 °C 30.45in /  1031hPa Calm   1.0mph /  1.6km/h 55% 0.00in /  0mm 0.0 W/m2
01:00 48.9 °F /  9.4 °C 33.4 °F /  0.8 °C 30.45in /  1031hPa East 0.9mph /  1.4km/h 2.0mph /  3.2km/h 55% 0.00in /  0mm 0.0 W/m2
01:06 48.9 °F /  9.4 °C 33.4 °F /  0.8 °C 30.45in /  1031hPa Calm   3.0mph /  4.8km/h 55% 0.00in /  0mm 0.0 W/m2
01:12 48.9 °F /  9.4 °C 33.4 °F /  0.8 °C 30.45in /  1031hPa Calm   2.0mph /  3.2km/h 55% 0.00in /  0mm 0.0 W/m2
01:18 48.9 °F /  9.4 °C 33.4 °F /  0.8 °C 30.45in /  1031hPa Calm   1.0mph /  1.6km/h 55% 0.00in /  0mm 0.0 W/m2
01:24 48.9 °F /  9.4 °C 33.4 °F /  0.8 °C 30.45in /  1031hPa Calm   1.0mph /  1.6km/h 55% 0.00in /  0mm 0.0 W/m2
01:37 48.9 °F /  9.4 °C 34.0 °F /  1.1 °C 30.45in /  1031hPa Calm   2.0mph /  3.2km/h 56% 0.00in /  0mm 0.0 W/m2
01:43 48.9 °F /  9.4 °C 34.0 °F /  1.1 °C 30.45in /  1031hPa Calm   2.0mph /  3.2km/h 56% 0.00in /  0mm 0.0 W/m2
01:49 48.7 °F /  9.3 °C 33.8 °F /  1 °C 30.45in /  1031hPa ENE 0.9mph /  1.4km/h 1.0mph /  1.6km/h 56% 0.00in /  0mm 0.0 W/m2
01:55 48.6 °F /  9.2 °C 34.0 °F /  1.1 °C 30.44in /  1030.7hPa Calm   1.0mph /  1.6km/h 57% 0.00in /  0mm 0.0 W/m2
02:01 48.4 °F /  9.1 °C 33.8 °F /  1 °C 30.44in /  1030.7hPa East 0.9mph /  1.4km/h 2.0mph /  3.2km/h 57% 0.00in /  0mm 0.0 W/m2
02:07 48.4 °F /  9.1 °C 33.8 °F /  1 °C 30.44in /  1030.7hPa East 0.9mph /  1.4km/h 1.0mph /  1.6km/h 57% 0.00in /  0mm 0.0 W/m2
02:14 48.2 °F /  9 °C 33.6 °F /  0.9 °C 30.44in /  1030.7hPa Calm   2.0mph /  3.2km/h 57% 0.00in /  0mm 0.0 W/m2
02:20 48.2 °F /  9 °C 34.2 °F /  1.2 °C 30.44in /  1030.7hPa Calm   2.0mph /  3.2km/h 58% 0.00in /  0mm 0.0 W/m2
02:26 48.0 °F /  8.9 °C 34.0 °F /  1.1 °C 30.44in /  1030.7hPa Calm   4.0mph /  6.4km/h 58% 0.00in /  0mm 0.0 W/m2
02:32 48.0 °F /  8.9 °C 34.0 °F /  1.1 °C 30.44in /  1030.7hPa East 2.0mph /  3.2km/h 2.0mph /  3.2km/h 58% 0.00in /  0mm 0.0 W/m2
02:38 47.8 °F /  8.8 °C 33.8 °F /  1 °C 30.44in /  1030.7hPa East 0.9mph /  1.4km/h 2.0mph /  3.2km/h 58% 0.00in /  0mm 0.0 W/m2
02:44 47.8 °F /  8.8 °C 34.2 °F /  1.2 °C 30.44in /  1030.7hPa East 2.0mph /  3.2km/h 3.0mph /  4.8km/h 59% 0.00in /  0mm 0.0 W/m2
02:50 47.7 °F /  8.7 °C 34.0 °F /  1.1 °C 30.44in /  1030.7hPa East 0.9mph /  1.4km/h 2.0mph /  3.2km/h 59% 0.00in /  0mm 0.0 W/m2
02:56 47.5 °F /  8.6 °C 34.3 °F /  1.3 °C 30.44in /  1030.7hPa Calm   3.0mph /  4.8km/h 60% 0.00in /  0mm 0.0 W/m2
03:03 47.3 °F /  8.5 °C 34.2 °F /  1.2 °C 30.43in /  1030.4hPa East 2.0mph /  3.2km/h 3.0mph /  4.8km/h 60% 0.00in /  0mm 0.0 W/m2
03:09 47.1 °F /  8.4 °C 34.3 °F /  1.3 °C 30.43in /  1030.4hPa Calm   3.0mph /  4.8km/h 61% 0.00in /  0mm 0.0 W/m2
03:15 47.1 °F /  8.4 °C 34.3 °F /  1.3 °C 30.44in /  1030.7hPa Calm   2.0mph /  3.2km/h 61% 0.00in /  0mm 0.0 W/m2
03:21 46.9 °F /  8.3 °C 34.2 °F /  1.2 °C 30.43in /  1030.4hPa Calm   2.0mph /  3.2km/h 61% 0.00in /  0mm 0.0 W/m2
03:27 46.9 °F /  8.3 °C 34.2 °F /  1.2 °C 30.43in /  1030.4hPa Calm   5.0mph /  8km/h 61% 0.00in /  0mm 0.0 W/m2
03:33 46.8 °F /  8.2 °C 34.5 °F /  1.4 °C 30.43in /  1030.4hPa Calm   5.0mph /  8km/h 62% 0.00in /  0mm 0.0 W/m2
03:39 46.8 °F /  8.2 °C 34.5 °F /  1.4 °C 30.43in /  1030.4hPa Calm   2.0mph /  3.2km/h 62% 0.00in /  0mm 0.0 W/m2
03:45 46.6 °F /  8.1 °C 34.3 °F /  1.3 °C 30.43in /  1030.4hPa ENE 0.9mph /  1.4km/h 2.0mph /  3.2km/h 62% 0.00in /  0mm 0.0 W/m2
03:51 46.6 °F /  8.1 °C 34.3 °F /  1.3 °C 30.43in /  1030.4hPa ENE 2.0mph /  3.2km/h 2.0mph /  3.2km/h 62% 0.00in /  0mm 0.0 W/m2
03:57 46.6 °F /  8.1 °C 34.3 °F /  1.3 °C 30.43in /  1030.4hPa East 0.9mph /  1.4km/h 2.0mph /  3.2km/h 62% 0.00in /  0mm 0.0 W/m2
04:03 46.6 °F /  8.1 °C 34.7 °F /  1.5 °C 30.43in /  1030.4hPa Calm   1.0mph /  1.6km/h 63% 0.00in /  0mm 0.0 W/m2
04:16 46.4 °F /  8 °C 34.9 °F /  1.6 °C 30.43in /  1030.4hPa Calm   1.0mph /  1.6km/h 64% 0.00in /  0mm 0.0 W/m2
04:22 46.2 °F /  7.9 °C 34.7 °F /  1.5 °C 30.43in /  1030.4hPa ESE 2.0mph /  3.2km/h 4.0mph /  6.4km/h 64% 0.00in /  0mm 0.0 W/m2
04:28 46.2 °F /  7.9 °C 34.7 °F /  1.5 °C 30.43in /  1030.4hPa Calm   3.0mph /  4.8km/h 64% 0.00in /  0mm 0.0 W/m2
04:34 46.2 °F /  7.9 °C 34.7 °F /  1.5 °C 30.43in /  1030.4hPa Calm   3.0mph /  4.8km/h 64% 0.00in /  0mm 0.0 W/m2
04:40 46.0 °F /  7.8 °C 34.9 °F /  1.6 °C 30.43in /  1030.4hPa Calm   3.0mph /  4.8km/h 65% 0.00in /  0mm 0.0 W/m2
04:46 46.0 °F /  7.8 °C 34.9 °F /  1.6 °C 30.42in /  1030hPa Calm   3.0mph /  4.8km/h 65% 0.00in /  0mm 0.0 W/m2
04:52 45.9 °F /  7.7 °C 34.7 °F /  1.5 °C 30.43in /  1030.4hPa Calm   2.0mph /  3.2km/h 65% 0.00in /  0mm 0.0 W/m2
04:58 45.9 °F /  7.7 °C 35.1 °F /  1.7 °C 30.43in /  1030.4hPa Calm   2.0mph /  3.2km/h 66% 0.00in /  0mm 0.0 W/m2
05:04 45.7 °F /  7.6 °C 35.1 °F /  1.7 °C 30.43in /  1030.4hPa East 2.0mph /  3.2km/h 2.0mph /  3.2km/h 66% 0.00in /  0mm 0.0 W/m2
05:10 45.5 °F /  7.5 °C 34.9 °F /  1.6 °C 30.43in /  1030.4hPa Calm   2.0mph /  3.2km/h 66% 0.00in /  0mm 0.0 W/m2
05:16 45.3 °F /  7.4 °C 35.1 °F /  1.7 °C 30.44in /  1030.7hPa Calm   2.0mph /  3.2km/h 67% 0.00in /  0mm 0.0 W/m2
05:23 45.3 °F /  7.4 °C 35.1 °F /  1.7 °C 30.44in /  1030.7hPa Calm   1.0mph /  1.6km/h 67% 0.00in /  0mm 0.0 W/m2
05:29 45.1 °F /  7.3 °C 34.9 °F /  1.6 °C 30.44in /  1030.7hPa Calm   3.0mph /  4.8km/h 67% 0.00in /  0mm 0.0 W/m2
05:35 45.1 °F /  7.3 °C 34.9 °F /  1.6 °C 30.44in /  1030.7hPa Calm   2.0mph /  3.2km/h 67% 0.00in /  0mm 0.0 W/m2
05:41 45.1 °F /  7.3 °C 35.2 °F /  1.8 °C 30.44in /  1030.7hPa Calm   3.0mph /  4.8km/h 68% 0.00in /  0mm 0.0 W/m2
05:47 45.3 °F /  7.4 °C 35.4 °F /  1.9 °C 30.45in /  1031hPa Calm   3.0mph /  4.8km/h 68% 0.00in /  0mm 0.0 W/m2
05:53 45.3 °F /  7.4 °C 35.4 °F /  1.9 °C 30.45in /  1031hPa ENE 0.9mph /  1.4km/h 3.0mph /  4.8km/h 68% 0.00in /  0mm 0.0 W/m2
05:59 45.3 °F /  7.4 °C 35.1 °F /  1.7 °C 30.45in /  1031hPa Calm   2.0mph /  3.2km/h 67% 0.00in /  0mm 0.0 W/m2
06:05 45.3 °F /  7.4 °C 35.4 °F /  1.9 °C 30.46in /  1031.4hPa ESE 0.9mph /  1.4km/h 3.0mph /  4.8km/h 68% 0.00in /  0mm 0.0 W/m2
06:11 45.3 °F /  7.4 °C 35.4 °F /  1.9 °C 30.46in /  1031.4hPa Calm   4.0mph /  6.4km/h 68% 0.00in /  0mm 0.0 W/m2
06:17 45.3 °F /  7.4 °C 35.4 °F /  1.9 °C 30.46in /  1031.4hPa Calm   3.0mph /  4.8km/h 68% 0.00in /  0mm 0.0 W/m2
06:23 45.1 °F /  7.3 °C 35.2 °F /  1.8 °C 30.46in /  1031.4hPa Calm   6.0mph /  9.7km/h 68% 0.00in /  0mm 5.0 W/m2
06:29 45.1 °F /  7.3 °C 35.2 °F /  1.8 °C 30.46in /  1031.4hPa NE 0.9mph /  1.4km/h 3.0mph /  4.8km/h 68% 0.00in /  0mm 7.0 W/m2
06:35 45.1 °F /  7.3 °C 35.2 °F /  1.8 °C 30.46in /  1031.4hPa ENE 2.9mph /  4.7km/h 3.0mph /  4.8km/h 68% 0.00in /  0mm 9.0 W/m2
06:41 45.1 °F /  7.3 °C 35.6 °F /  2 °C 30.46in /  1031.4hPa ENE 2.0mph /  3.2km/h 3.0mph /  4.8km/h 69% 0.00in /  0mm 11.0 W/m2
06:47 45.1 °F /  7.3 °C 35.6 °F /  2 °C 30.47in /  1031.7hPa Calm   4.0mph /  6.4km/h 69% 0.00in /  0mm 12.0 W/m2
06:53 45.1 °F /  7.3 °C 35.6 °F /  2 °C 30.47in /  1031.7hPa Calm   4.0mph /  6.4km/h 69% 0.00in /  0mm 14.0 W/m2
06:59 45.3 °F /  7.4 °C 35.8 °F /  2.1 °C 30.47in /  1031.7hPa Calm   3.0mph /  4.8km/h 69% 0.00in /  0mm 16.0 W/m2
07:05 45.3 °F /  7.4 °C 35.8 °F /  2.1 °C 30.48in /  1032.1hPa Calm   3.0mph /  4.8km/h 69% 0.00in /  0mm 18.0 W/m2
07:11 45.5 °F /  7.5 °C 36.3 °F /  2.4 °C 30.48in /  1032.1hPa East 0.9mph /  1.4km/h 2.0mph /  3.2km/h 70% 0.00in /  0mm 19.0 W/m2
07:17 45.9 °F /  7.7 °C 36.7 °F /  2.6 °C 30.48in /  1032.1hPa Calm   3.0mph /  4.8km/h 70% 0.00in /  0mm 19.0 W/m2
07:23 46.6 °F /  8.1 °C 37.0 °F /  2.8 °C 30.48in /  1032.1hPa Calm   2.0mph /  3.2km/h 69% 0.00in /  0mm 21.0 W/m2
07:29 46.9 °F /  8.3 °C 36.9 °F /  2.7 °C 30.48in /  1032.1hPa Calm   1.0mph /  1.6km/h 68% 0.00in /  0mm 23.0 W/m2
07:35 47.5 °F /  8.6 °C 37.0 °F /  2.8 °C 30.48in /  1032.1hPa Calm     67% 0.00in /  0mm 25.0 W/m2
07:41 48.4 °F /  9.1 °C 37.6 °F /  3.1 °C 30.48in /  1032.1hPa Calm   1.0mph /  1.6km/h 66% 0.00in /  0mm 25.0 W/m2
07:47 49.3 °F /  9.6 °C 37.9 °F /  3.3 °C 30.48in /  1032.1hPa Calm   1.0mph /  1.6km/h 65% 0.00in /  0mm 26.0 W/m2
07:53 50.0 °F /  10 °C 38.3 °F /  3.5 °C 30.48in /  1032.1hPa Calm     64% 0.00in /  0mm 26.0 W/m2
08:05 52.2 °F /  11.2 °C 39.2 °F /  4 °C 30.48in /  1032.1hPa Calm   2.0mph /  3.2km/h 61% 0.00in /  0mm 47.0 W/m2
08:11 54.7 °F /  12.6 °C 39.4 °F /  4.1 °C 30.49in /  1032.4hPa Calm   3.0mph /  4.8km/h 56% 0.00in /  0mm 359.0 W/m2
08:17 56.8 °F /  13.8 °C 39.4 °F /  4.1 °C 30.48in /  1032.1hPa NE 0.9mph /  1.4km/h 3.0mph /  4.8km/h 52% 0.00in /  0mm 378.0 W/m2
08:23 58.6 °F /  14.8 °C 39.0 °F /  3.9 °C 30.48in /  1032.1hPa NNE 2.0mph /  3.2km/h 3.0mph /  4.8km/h 48% 0.00in /  0mm 397.0 W/m2
08:29 60.4 °F /  15.8 °C 39.0 °F /  3.9 °C 30.49in /  1032.4hPa Calm   3.0mph /  4.8km/h 45% 0.00in /  0mm 418.0 W/m2
08:35 61.5 °F /  16.4 °C 39.4 °F /  4.1 °C 30.49in /  1032.4hPa Calm   4.0mph /  6.4km/h 44% 0.00in /  0mm 436.0 W/m2
08:41 62.8 °F /  17.1 °C 39.4 °F /  4.1 °C 30.48in /  1032.1hPa East 2.0mph /  3.2km/h 4.0mph /  6.4km/h 42% 0.00in /  0mm 455.0 W/m2
08:47 63.9 °F /  17.7 °C 39.7 °F /  4.3 °C 30.49in /  1032.4hPa East 7.0mph /  11.3km/h 7.0mph /  11.3km/h 41% 0.00in /  0mm 473.0 W/m2
08:53 64.6 °F /  18.1 °C 39.0 °F /  3.9 °C 30.49in /  1032.4hPa North 4.0mph /  6.4km/h 7.0mph /  11.3km/h 39% 0.00in /  0mm 492.0 W/m2
08:59 65.1 °F /  18.4 °C 38.8 °F /  3.8 °C 30.49in /  1032.4hPa Calm   7.0mph /  11.3km/h 38% 0.00in /  0mm 508.0 W/m2
09:05 65.7 °F /  18.7 °C 38.7 °F /  3.7 °C 30.49in /  1032.4hPa North 2.0mph /  3.2km/h 8.0mph /  12.9km/h 37% 0.00in /  0mm 526.0 W/m2
09:11 66.0 °F /  18.9 °C 39.0 °F /  3.9 °C 30.49in /  1032.4hPa Calm   7.0mph /  11.3km/h 37% 0.00in /  0mm 540.0 W/m2
09:17 66.2 °F /  19 °C 39.2 °F /  4 °C 30.49in /  1032.4hPa NNE 4.9mph /  7.9km/h 11.0mph /  17.7km/h 37% 0.00in /  0mm 554.0 W/m2
09:23 66.4 °F /  19.1 °C 39.4 °F /  4.1 °C 30.49in /  1032.4hPa ESE 2.0mph /  3.2km/h 7.0mph /  11.3km/h 37% 0.00in /  0mm 571.0 W/m2
09:29 66.6 °F /  19.2 °C 38.8 °F /  3.8 °C 30.49in /  1032.4hPa East 4.0mph /  6.4km/h 7.0mph /  11.3km/h 36% 0.00in /  0mm 584.0 W/m2
09:35 66.9 °F /  19.4 °C 38.3 °F /  3.5 °C 30.49in /  1032.4hPa NNE 6.0mph /  9.7km/h 13.0mph /  20.9km/h 35% 0.00in /  0mm 598.0 W/m2
09:41 67.3 °F /  19.6 °C 38.7 °F /  3.7 °C 30.48in /  1032.1hPa NNE 0.9mph /  1.4km/h 2.0mph /  3.2km/h 35% 0.00in /  0mm 610.0 W/m2
09:47 67.5 °F /  19.7 °C 39.6 °F /  4.2 °C 30.49in /  1032.4hPa ENE 4.0mph /  6.4km/h 9.0mph /  14.5km/h 36% 0.00in /  0mm 622.0 W/m2
09:53 67.6 °F /  19.8 °C 39.0 °F /  3.9 °C 30.48in /  1032.1hPa NNW 2.0mph /  3.2km/h 5.0mph /  8km/h 35% 0.00in /  0mm 636.0 W/m2
09:59 68.2 °F /  20.1 °C 39.6 °F /  4.2 °C 30.48in /  1032.1hPa NNE 0.9mph /  1.4km/h 6.0mph /  9.7km/h 35% 0.00in /  0mm 649.0 W/m2
10:05 68.4 °F /  20.2 °C 38.1 °F /  3.4 °C 30.48in /  1032.1hPa SSE 0.9mph /  1.4km/h 6.0mph /  9.7km/h 33% 0.00in /  0mm 654.0 W/m2
10:11 68.5 °F /  20.3 °C 39.7 °F /  4.3 °C 30.48in /  1032.1hPa East 2.9mph /  4.7km/h 4.0mph /  6.4km/h 35% 0.00in /  0mm 668.0 W/m2
10:17 68.7 °F /  20.4 °C 38.5 °F /  3.6 °C 30.47in /  1031.7hPa NW 4.0mph /  6.4km/h 9.0mph /  14.5km/h 33% 0.00in /  0mm 673.0 W/m2
10:23 68.7 °F /  20.4 °C 39.2 °F /  4 °C 30.47in /  1031.7hPa Calm   4.0mph /  6.4km/h 34% 0.00in /  0mm 686.0 W/m2
10:29 69.1 °F /  20.6 °C 38.8 °F /  3.8 °C 30.47in /  1031.7hPa NNE 4.0mph /  6.4km/h 4.0mph /  6.4km/h 33% 0.00in /  0mm 693.0 W/m2
10:35 69.1 °F /  20.6 °C 38.8 °F /  3.8 °C 30.46in /  1031.4hPa Calm   3.0mph /  4.8km/h 33% 0.00in /  0mm 696.0 W/m2
10:41 69.3 °F /  20.7 °C 39.7 °F /  4.3 °C 30.46in /  1031.4hPa NNE 0.9mph /  1.4km/h 9.0mph /  14.5km/h 34% 0.00in /  0mm 708.0 W/m2
10:47 69.6 °F /  20.9 °C 38.5 °F /  3.6 °C 30.45in /  1031hPa East 0.9mph /  1.4km/h 10.0mph /  16.1km/h 32% 0.00in /  0mm 714.0 W/m2
10:53 69.6 °F /  20.9 °C 39.2 °F /  4 °C 30.45in /  1031hPa ENE 0.9mph /  1.4km/h 8.0mph /  12.9km/h 33% 0.00in /  0mm 719.0 W/m2
10:59 69.6 °F /  20.9 °C 38.5 °F /  3.6 °C 30.44in /  1030.7hPa ENE 0.9mph /  1.4km/h 8.0mph /  12.9km/h 32% 0.00in /  0mm 726.0 W/m2
11:05 69.8 °F /  21 °C 37.8 °F /  3.2 °C 30.44in /  1030.7hPa NNE 0.9mph /  1.4km/h 6.0mph /  9.7km/h 31% 0.00in /  0mm 733.0 W/m2
11:11 70.0 °F /  21.1 °C 37.0 °F /  2.8 °C 30.44in /  1030.7hPa East 4.9mph /  7.9km/h 7.0mph /  11.3km/h 30% 0.00in /  0mm 735.0 W/m2
11:17 70.2 °F /  21.2 °C 37.2 °F /  2.9 °C 30.43in /  1030.4hPa NE 2.0mph /  3.2km/h 5.0mph /  8km/h 30% 0.00in /  0mm 740.0 W/m2
11:23 70.3 °F /  21.3 °C 37.4 °F /  3 °C 30.43in /  1030.4hPa NE 2.9mph /  4.7km/h 11.0mph /  17.7km/h 30% 0.00in /  0mm 738.0 W/m2
11:29 70.3 °F /  21.3 °C 38.3 °F /  3.5 °C 30.43in /  1030.4hPa ENE 2.0mph /  3.2km/h 3.0mph /  4.8km/h 31% 0.00in /  0mm 744.0 W/m2
11:35 70.7 °F /  21.5 °C 36.9 °F /  2.7 °C 30.42in /  1030hPa ENE 0.9mph /  1.4km/h 11.0mph /  17.7km/h 29% 0.00in /  0mm 742.0 W/m2
11:41 71.1 °F /  21.7 °C 38.1 °F /  3.4 °C 30.42in /  1030hPa ENE 0.9mph /  1.4km/h 4.0mph /  6.4km/h 30% 0.00in /  0mm 740.0 W/m2
11:47 71.1 °F /  21.7 °C 37.2 °F /  2.9 °C 30.42in /  1030hPa NNE 2.9mph /  4.7km/h 8.0mph /  12.9km/h 29% 0.00in /  0mm 747.0 W/m2
11:53 71.1 °F /  21.7 °C 37.2 °F /  2.9 °C 30.42in /  1030hPa Calm   5.0mph /  8km/h 29% 0.00in /  0mm 745.0 W/m2
11:59 71.1 °F /  21.7 °C 35.4 °F /  1.9 °C 30.41in /  1029.7hPa East 0.9mph /  1.4km/h 5.0mph /  8km/h 27% 0.00in /  0mm 742.0 W/m2
12:05 71.1 °F /  21.7 °C 36.3 °F /  2.4 °C 30.41in /  1029.7hPa ENE 2.9mph /  4.7km/h 10.0mph /  16.1km/h 28% 0.00in /  0mm 735.0 W/m2
12:11 71.1 °F /  21.7 °C 35.4 °F /  1.9 °C 30.40in /  1029.3hPa NNE 6.0mph /  9.7km/h 14.0mph /  22.5km/h 27% 0.00in /  0mm 738.0 W/m2
12:17 71.2 °F /  21.8 °C 35.6 °F /  2 °C 30.40in /  1029.3hPa Calm   4.0mph /  6.4km/h 27% 0.00in /  0mm 728.0 W/m2
12:23 71.4 °F /  21.9 °C 36.7 °F /  2.6 °C 30.39in /  1029hPa Calm   6.0mph /  9.7km/h 28% 0.00in /  0mm 726.0 W/m2
12:29 71.4 °F /  21.9 °C 35.8 °F /  2.1 °C 30.39in /  1029hPa East 2.0mph /  3.2km/h 6.0mph /  9.7km/h 27% 0.00in /  0mm 722.0 W/m2
12:35 71.8 °F /  22.1 °C 35.1 °F /  1.7 °C 30.38in /  1028.7hPa ENE 10.1mph /  16.3km/h 10.1mph /  16.3km/h 26% 0.00in /  0mm 719.0 W/m2
12:41 71.6 °F /  22 °C 35.8 °F /  2.1 °C 30.38in /  1028.7hPa ENE 0.9mph /  1.4km/h 5.0mph /  8km/h 27% 0.00in /  0mm 710.0 W/m2
12:47 71.6 °F /  22 °C 35.8 °F /  2.1 °C 30.37in /  1028.3hPa Calm   7.0mph /  11.3km/h 27% 0.00in /  0mm 705.0 W/m2
12:53 72.0 °F /  22.2 °C 37.0 °F /  2.8 °C 30.37in /  1028.3hPa East 2.0mph /  3.2km/h 6.0mph /  9.7km/h 28% 0.00in /  0mm 696.0 W/m2
12:59 72.1 °F /  22.3 °C 36.3 °F /  2.4 °C 30.36in /  1028hPa NE 8.1mph /  13km/h 12.0mph /  19.3km/h 27% 0.00in /  0mm 689.0 W/m2
13:12 72.3 °F /  22.4 °C 35.6 °F /  2 °C 30.35in /  1027.7hPa Calm   6.0mph /  9.7km/h 26% 0.00in /  0mm 670.0 W/m2
13:18 72.3 °F /  22.4 °C 34.5 °F /  1.4 °C 30.35in /  1027.7hPa NE 6.9mph /  11.1km/h 7.0mph /  11.3km/h 25% 0.00in /  0mm 663.0 W/m2
13:24 72.3 °F /  22.4 °C 35.6 °F /  2 °C 30.35in /  1027.7hPa SE 4.0mph /  6.4km/h 7.0mph /  11.3km/h 26% 0.00in /  0mm 650.0 W/m2
13:30 72.5 °F /  22.5 °C 33.6 °F /  0.9 °C 30.35in /  1027.7hPa West 0.9mph /  1.4km/h 3.0mph /  4.8km/h 24% 0.00in /  0mm 640.0 W/m2
13:36 72.3 °F /  22.4 °C 34.5 °F /  1.4 °C 30.35in /  1027.7hPa North 4.0mph /  6.4km/h 8.0mph /  12.9km/h 25% 0.00in /  0mm 629.0 W/m2
13:42 72.5 °F /  22.5 °C 35.6 °F /  2 °C 30.35in /  1027.7hPa ESE 4.9mph /  7.9km/h 8.0mph /  12.9km/h 26% 0.00in /  0mm 615.0 W/m2
13:48 72.5 °F /  22.5 °C 33.6 °F /  0.9 °C 30.35in /  1027.7hPa ESE 11.0mph /  17.7km/h 11.0mph /  17.7km/h 24% 0.00in /  0mm 601.0 W/m2
13:54 72.5 °F /  22.5 °C 33.6 °F /  0.9 °C 30.34in /  1027.3hPa East 2.0mph /  3.2km/h 7.0mph /  11.3km/h 24% 0.00in /  0mm 589.0 W/m2
14:00 72.5 °F /  22.5 °C 34.7 °F /  1.5 °C 30.34in /  1027.3hPa NE 2.0mph /  3.2km/h 11.0mph /  17.7km/h 25% 0.00in /  0mm 578.0 W/m2
14:06 72.7 °F /  22.6 °C 34.9 °F /  1.6 °C 30.34in /  1027.3hPa NE 4.9mph /  7.9km/h 6.0mph /  9.7km/h 25% 0.00in /  0mm 564.0 W/m2
14:12 72.7 °F /  22.6 °C 34.9 °F /  1.6 °C 30.34in /  1027.3hPa NE 4.9mph /  7.9km/h 9.0mph /  14.5km/h 25% 0.00in /  0mm 550.0 W/m2
14:18 72.9 °F /  22.7 °C 32.9 °F /  0.5 °C 30.34in /  1027.3hPa ENE 6.0mph /  9.7km/h 10.0mph /  16.1km/h 23% 0.00in /  0mm 534.0 W/m2
14:24 72.9 °F /  22.7 °C 31.8 °F /  -0.1 °C 30.33in /  1027hPa ESE 0.9mph /  1.4km/h 6.0mph /  9.7km/h 22% 0.00in /  0mm 519.0 W/m2
14:30 72.9 °F /  22.7 °C 32.9 °F /  0.5 °C 30.33in /  1027hPa NE 0.9mph /  1.4km/h 8.0mph /  12.9km/h 23% 0.00in /  0mm 503.0 W/m2
14:36 72.7 °F /  22.6 °C 33.8 °F /  1 °C 30.33in /  1027hPa NE 0.9mph /  1.4km/h 3.0mph /  4.8km/h 24% 0.00in /  0mm 489.0 W/m2
14:42 72.7 °F /  22.6 °C 32.7 °F /  0.4 °C 30.33in /  1027hPa NE 4.9mph /  7.9km/h 6.0mph /  9.7km/h 23% 0.00in /  0mm 471.0 W/m2
14:48 72.5 °F /  22.5 °C 33.6 °F /  0.9 °C 30.34in /  1027.3hPa East 6.0mph /  9.7km/h 9.0mph /  14.5km/h 24% 0.00in /  0mm 446.0 W/m2
14:54 72.3 °F /  22.4 °C 34.5 °F /  1.4 °C 30.33in /  1027hPa NE 4.0mph /  6.4km/h 5.0mph /  8km/h 25% 0.00in /  0mm 431.0 W/m2
15:01 72.5 °F /  22.5 °C 33.6 °F /  0.9 °C 30.33in /  1027hPa SSE 6.0mph /  9.7km/h 9.0mph /  14.5km/h 24% 0.00in /  0mm 411.0 W/m2
15:07 72.7 °F /  22.6 °C 33.8 °F /  1 °C 30.33in /  1027hPa SE 0.9mph /  1.4km/h 4.0mph /  6.4km/h 24% 0.00in /  0mm 394.0 W/m2
15:13 72.3 °F /  22.4 °C 32.4 °F /  0.2 °C 30.33in /  1027hPa ENE 2.0mph /  3.2km/h 9.0mph /  14.5km/h 23% 0.00in /  0mm 376.0 W/m2
15:19 72.1 °F /  22.3 °C 33.4 °F /  0.8 °C 30.33in /  1027hPa East 4.9mph /  7.9km/h 8.0mph /  12.9km/h 24% 0.00in /  0mm 352.0 W/m2
15:25 72.0 °F /  22.2 °C 33.3 °F /  0.7 °C 30.33in /  1027hPa ENE 0.9mph /  1.4km/h 5.0mph /  8km/h 24% 0.00in /  0mm 332.0 W/m2
15:31 71.8 °F /  22.1 °C 34.0 °F /  1.1 °C 30.33in /  1027hPa NE 2.9mph /  4.7km/h 5.0mph /  8km/h 25% 0.00in /  0mm 44.0 W/m2
15:44 71.1 °F /  21.7 °C 32.4 °F /  0.2 °C 30.33in /  1027hPa ENE 2.9mph /  4.7km/h 7.0mph /  11.3km/h 24% 0.00in /  0mm 39.0 W/m2
15:50 70.7 °F /  21.5 °C 33.1 °F /  0.6 °C 30.33in /  1027hPa Calm   4.0mph /  6.4km/h 25% 0.00in /  0mm 35.0 W/m2
15:56 70.3 °F /  21.3 °C 32.9 °F /  0.5 °C 30.33in /  1027hPa NNE 2.0mph /  3.2km/h 7.0mph /  11.3km/h 25% 0.00in /  0mm 32.0 W/m2
16:02 70.2 °F /  21.2 °C 32.7 °F /  0.4 °C 30.33in /  1027hPa SSE 2.9mph /  4.7km/h 7.0mph /  11.3km/h 25% 0.00in /  0mm 28.0 W/m2
16:08 70.0 °F /  21.1 °C 33.4 °F /  0.8 °C 30.33in /  1027hPa Calm   4.0mph /  6.4km/h 26% 0.00in /  0mm 25.0 W/m2
16:14 69.4 °F /  20.8 °C 33.1 °F /  0.6 °C 30.33in /  1027hPa NE 4.9mph /  7.9km/h 5.0mph /  8km/h 26% 0.00in /  0mm 23.0 W/m2
16:20 69.3 °F /  20.7 °C 32.9 °F /  0.5 °C 30.34in /  1027.3hPa Calm   5.0mph /  8km/h 26% 0.00in /  0mm 21.0 W/m2
16:27 69.1 °F /  20.6 °C 32.7 °F /  0.4 °C 30.33in /  1027hPa NNE 0.9mph /  1.4km/h 7.0mph /  11.3km/h 26% 0.00in /  0mm 19.0 W/m2
16:33 68.7 °F /  20.4 °C 32.4 °F /  0.2 °C 30.34in /  1027.3hPa North 2.0mph /  3.2km/h 3.0mph /  4.8km/h 26% 0.00in /  0mm 19.0 W/m2
16:39 68.4 °F /  20.2 °C 32.2 °F /  0.1 °C 30.34in /  1027.3hPa Calm   6.0mph /  9.7km/h 26% 0.00in /  0mm 18.0 W/m2
16:45 68.2 °F /  20.1 °C 32.9 °F /  0.5 °C 30.34in /  1027.3hPa NE 4.9mph /  7.9km/h 8.0mph /  12.9km/h 27% 0.00in /  0mm 16.0 W/m2
16:51 67.8 °F /  19.9 °C 32.5 °F /  0.3 °C 30.34in /  1027.3hPa ENE 0.9mph /  1.4km/h 5.0mph /  8km/h 27% 0.00in /  0mm 14.0 W/m2
16:57 67.5 °F /  19.7 °C 32.4 °F /  0.2 °C 30.34in /  1027.3hPa Calm   3.0mph /  4.8km/h 27% 0.00in /  0mm 12.0 W/m2
17:03 67.3 °F /  19.6 °C 34.0 °F /  1.1 °C 30.35in /  1027.7hPa Calm   5.0mph /  8km/h 29% 0.00in /  0mm 9.0 W/m2
17:10 66.7 °F /  19.3 °C 33.4 °F /  0.8 °C 30.34in /  1027.3hPa Calm   1.0mph /  1.6km/h 29% 0.00in /  0mm 7.0 W/m2
17:16 66.4 °F /  19.1 °C 34.0 °F /  1.1 °C 30.34in /  1027.3hPa Calm     30% 0.00in /  0mm 0.0 W/m2
17:22 65.7 °F /  18.7 °C 33.4 °F /  0.8 °C 30.34in /  1027.3hPa Calm     30% 0.00in /  0mm 0.0 W/m2
17:28 65.1 °F /  18.4 °C 32.9 °F /  0.5 °C 30.34in /  1027.3hPa Calm     30% 0.00in /  0mm 0.0 W/m2
17:34 64.4 °F /  18 °C 34.0 °F /  1.1 °C 30.35in /  1027.7hPa Calm     32% 0.00in /  0mm 0.0 W/m2
17:40 63.3 °F /  17.4 °C 32.9 °F /  0.5 °C 30.35in /  1027.7hPa Calm     32% 0.00in /  0mm 0.0 W/m2
17:46 62.6 °F /  17 °C 33.8 °F /  1 °C 30.35in /  1027.7hPa Calm     34% 0.00in /  0mm 0.0 W/m2
17:53 61.7 °F /  16.5 °C 33.8 °F /  1 °C 30.35in /  1027.7hPa Calm     35% 0.00in /  0mm 0.0 W/m2
17:59 61.0 °F /  16.1 °C 33.1 °F /  0.6 °C 30.35in /  1027.7hPa Calm     35% 0.00in /  0mm 0.0 W/m2
18:05 60.3 °F /  15.7 °C 32.5 °F /  0.3 °C 30.36in /  1028hPa Calm     35% 0.00in /  0mm 0.0 W/m2
18:11 59.7 °F /  15.4 °C 32.0 °F /  0 °C 30.36in /  1028hPa Calm     35% 0.00in /  0mm 0.0 W/m2
18:17 59.4 °F /  15.2 °C 32.4 °F /  0.2 °C 30.36in /  1028hPa Calm     36% 0.00in /  0mm 0.0 W/m2
18:23 59.0 °F /  15 °C 32.7 °F /  0.4 °C 30.37in /  1028.3hPa NE 0.9mph /  1.4km/h 1.0mph /  1.6km/h 37% 0.00in /  0mm 0.0 W/m2
18:29 58.6 °F /  14.8 °C 33.1 °F /  0.6 °C 30.37in /  1028.3hPa Calm   1.0mph /  1.6km/h 38% 0.00in /  0mm 0.0 W/m2
18:36 58.5 °F /  14.7 °C 33.6 °F /  0.9 °C 30.37in /  1028.3hPa Calm   1.0mph /  1.6km/h 39% 0.00in /  0mm 0.0 W/m2
18:42 58.3 °F /  14.6 °C 33.4 °F /  0.8 °C 30.37in /  1028.3hPa Calm   1.0mph /  1.6km/h 39% 0.00in /  0mm 0.0 W/m2
18:48 57.7 °F /  14.3 °C 33.6 °F /  0.9 °C 30.37in /  1028.3hPa ENE 0.9mph /  1.4km/h 2.0mph /  3.2km/h 40% 0.00in /  0mm 0.0 W/m2
18:54 57.6 °F /  14.2 °C 33.4 °F /  0.8 °C 30.37in /  1028.3hPa Calm     40% 0.00in /  0mm 0.0 W/m2
19:00 57.0 °F /  13.9 °C 32.9 °F /  0.5 °C 30.38in /  1028.7hPa Calm   1.0mph /  1.6km/h 40% 0.00in /  0mm 0.0 W/m2
19:06 56.8 °F /  13.8 °C 33.4 °F /  0.8 °C 30.38in /  1028.7hPa Calm   3.0mph /  4.8km/h 41% 0.00in /  0mm 0.0 W/m2
19:12 56.5 °F /  13.6 °C 33.6 °F /  0.9 °C 30.38in /  1028.7hPa Calm   1.0mph /  1.6km/h 42% 0.00in /  0mm 0.0 W/m2
19:18 56.1 °F /  13.4 °C 33.3 °F /  0.7 °C 30.38in /  1028.7hPa Calm   1.0mph /  1.6km/h 42% 0.00in /  0mm 0.0 W/m2
19:25 55.9 °F /  13.3 °C 33.3 °F /  0.7 °C 30.38in /  1028.7hPa Calm   2.0mph /  3.2km/h 42% 0.00in /  0mm 0.0 W/m2
19:31 55.8 °F /  13.2 °C 33.6 °F /  0.9 °C 30.38in /  1028.7hPa Calm   4.0mph /  6.4km/h 43% 0.00in /  0mm 0.0 W/m2
19:37 55.4 °F /  13 °C 33.3 °F /  0.7 °C 30.38in /  1028.7hPa Calm   2.0mph /  3.2km/h 43% 0.00in /  0mm 0.0 W/m2
19:43 55.2 °F /  12.9 °C 33.1 °F /  0.6 °C 30.39in /  1029hPa ESE 0.9mph /  1.4km/h 3.0mph /  4.8km/h 43% 0.00in /  0mm 0.0 W/m2
19:49 55.0 °F /  12.8 °C 32.9 °F /  0.5 °C 30.39in /  1029hPa Calm     43% 0.00in /  0mm 0.0 W/m2
19:55 54.9 °F /  12.7 °C 32.7 °F /  0.4 °C 30.39in /  1029hPa Calm   1.0mph /  1.6km/h 43% 0.00in /  0mm 0.0 W/m2
20:01 54.7 °F /  12.6 °C 33.3 °F /  0.7 °C 30.39in /  1029hPa Calm   1.0mph /  1.6km/h 44% 0.00in /  0mm 0.0 W/m2
20:08 54.5 °F /  12.5 °C 33.1 °F /  0.6 °C 30.39in /  1029hPa Calm   1.0mph /  1.6km/h 44% 0.00in /  0mm 0.0 W/m2
20:14 54.3 °F /  12.4 °C 32.9 °F /  0.5 °C 30.39in /  1029hPa Calm   3.0mph /  4.8km/h 44% 0.00in /  0mm 0.0 W/m2
20:20 54.1 °F /  12.3 °C 33.3 °F /  0.7 °C 30.39in /  1029hPa Calm   1.0mph /  1.6km/h 45% 0.00in /  0mm 0.0 W/m2
20:26 54.0 °F /  12.2 °C 32.5 °F /  0.3 °C 30.39in /  1029hPa Calm   2.0mph /  3.2km/h 44% 0.00in /  0mm 0.0 W/m2
20:32 53.8 °F /  12.1 °C 32.9 °F /  0.5 °C 30.39in /  1029hPa Calm   2.0mph /  3.2km/h 45% 0.00in /  0mm 0.0 W/m2
20:38 53.6 °F /  12 °C 32.7 °F /  0.4 °C 30.40in /  1029.3hPa Calm     45% 0.00in /  0mm 0.0 W/m2
20:44 53.2 °F /  11.8 °C 32.4 °F /  0.2 °C 30.40in /  1029.3hPa Calm   1.0mph /  1.6km/h 45% 0.00in /  0mm 0.0 W/m2
20:50 53.2 °F /  11.8 °C 32.4 °F /  0.2 °C 30.40in /  1029.3hPa Calm   2.0mph /  3.2km/h 45% 0.00in /  0mm 0.0 W/m2
20:57 53.1 °F /  11.7 °C 32.9 °F /  0.5 °C 30.40in /  1029.3hPa Calm   2.0mph /  3.2km/h 46% 0.00in /  0mm 0.0 W/m2
21:03 52.9 °F /  11.6 °C 32.7 °F /  0.4 °C 30.40in /  1029.3hPa Calm   2.0mph /  3.2km/h 46% 0.00in /  0mm 0.0 W/m2
21:09 52.9 °F /  11.6 °C 32.7 °F /  0.4 °C 30.40in /  1029.3hPa Calm   2.0mph /  3.2km/h 46% 0.00in /  0mm 0.0 W/m2
21:15 52.5 °F /  11.4 °C 32.4 °F /  0.2 °C 30.40in /  1029.3hPa Calm   2.0mph /  3.2km/h 46% 0.00in /  0mm 0.0 W/m2
21:21 52.5 °F /  11.4 °C 32.4 °F /  0.2 °C 30.40in /  1029.3hPa Calm   3.0mph /  4.8km/h 46% 0.00in /  0mm 0.0 W/m2
21:27 52.5 °F /  11.4 °C 32.9 °F /  0.5 °C 30.40in /  1029.3hPa Calm   1.0mph /  1.6km/h 47% 0.00in /  0mm 0.0 W/m2
21:33 52.5 °F /  11.4 °C 32.9 °F /  0.5 °C 30.40in /  1029.3hPa East 0.9mph /  1.4km/h 4.0mph /  6.4km/h 47% 0.00in /  0mm 0.0 W/m2
21:40 52.5 °F /  11.4 °C 32.9 °F /  0.5 °C 30.40in /  1029.3hPa ENE 0.9mph /  1.4km/h 2.0mph /  3.2km/h 47% 0.00in /  0mm 0.0 W/m2
21:45 52.3 °F /  11.3 °C 32.7 °F /  0.4 °C 30.40in /  1029.3hPa Calm   3.0mph /  4.8km/h 47% 0.00in /  0mm 0.0 W/m2
21:52 52.5 °F /  11.4 °C 32.4 °F /  0.2 °C 30.40in /  1029.3hPa Calm   1.0mph /  1.6km/h 46% 0.00in /  0mm 0.0 W/m2
21:58 52.3 °F /  11.3 °C 32.2 °F /  0.1 °C 30.41in /  1029.7hPa Calm   1.0mph /  1.6km/h 46% 0.00in /  0mm 0.0 W/m2
22:04 52.2 °F /  11.2 °C 32.5 °F /  0.3 °C 30.41in /  1029.7hPa Calm   1.0mph /  1.6km/h 47% 0.00in /  0mm 0.0 W/m2
22:10 52.2 °F /  11.2 °C 32.0 °F /  0 °C 30.41in /  1029.7hPa Calm   3.0mph /  4.8km/h 46% 0.00in /  0mm 0.0 W/m2
22:16 52.0 °F /  11.1 °C 32.4 °F /  0.2 °C 30.41in /  1029.7hPa Calm   1.0mph /  1.6km/h 47% 0.00in /  0mm 0.0 W/m2
22:22 51.8 °F /  11 °C 32.2 °F /  0.1 °C 30.41in /  1029.7hPa ENE 0.9mph /  1.4km/h 4.0mph /  6.4km/h 47% 0.00in /  0mm 0.0 W/m2
22:29 51.6 °F /  10.9 °C 32.5 °F /  0.3 °C 30.41in /  1029.7hPa Calm   4.0mph /  6.4km/h 48% 0.00in /  0mm 0.0 W/m2
22:35 51.4 °F /  10.8 °C 32.4 °F /  0.2 °C 30.41in /  1029.7hPa Calm   3.0mph /  4.8km/h 48% 0.00in /  0mm 0.0 W/m2
22:41 51.1 °F /  10.6 °C 32.0 °F /  0 °C 30.41in /  1029.7hPa Calm     48% 0.00in /  0mm 0.0 W/m2
22:47 50.9 °F /  10.5 °C 31.8 °F /  -0.1 °C 30.41in /  1029.7hPa Calm     48% 0.00in /  0mm 0.0 W/m2
22:53 50.7 °F /  10.4 °C 32.2 °F /  0.1 °C 30.41in /  1029.7hPa Calm   1.0mph /  1.6km/h 49% 0.00in /  0mm 0.0 W/m2
22:59 50.5 °F /  10.3 °C 32.0 °F /  0 °C 30.41in /  1029.7hPa Calm     49% 0.00in /  0mm 0.0 W/m2
23:05 50.5 °F /  10.3 °C 32.0 °F /  0 °C 30.41in /  1029.7hPa Calm   1.0mph /  1.6km/h 49% 0.00in /  0mm 0.0 W/m2
23:11 50.5 °F /  10.3 °C 32.0 °F /  0 °C 30.41in /  1029.7hPa Calm     49% 0.00in /  0mm 0.0 W/m2
23:18 50.4 °F /  10.2 °C 32.0 °F /  0 °C 30.41in /  1029.7hPa Calm   2.0mph /  3.2km/h 49% 0.00in /  0mm 0.0 W/m2
23:24 50.4 °F /  10.2 °C 32.0 °F /  0 °C 30.41in /  1029.7hPa Calm     49% 0.00in /  0mm 0.0 W/m2
23:30 50.4 °F /  10.2 °C 32.4 °F /  0.2 °C 30.41in /  1029.7hPa Calm     50% 0.00in /  0mm 0.0 W/m2
23:36 50.2 °F /  10.1 °C 32.2 °F /  0.1 °C 30.41in /  1029.7hPa Calm   1.0mph /  1.6km/h 50% 0.00in /  0mm 0.0 W/m2
23:42 50.2 °F /  10.1 °C 32.2 °F /  0.1 °C 30.41in /  1029.7hPa Calm   3.0mph /  4.8km/h 50% 0.00in /  0mm 0.0 W/m2
23:48 50.2 °F /  10.1 °C 32.7 °F /  0.4 °C 30.41in /  1029.7hPa Calm     51% 0.00in /  0mm 0.0 W/m2
23:54 50.0 °F /  10 °C 32.5 °F /  0.3 °C 30.41in /  1029.7hPa Calm     51% 0.00in /  0mm 0.0 W/m2
Olympia, Windhoek, Namibia
Compliments of Weather Underground - 3 mb